sensor_id;sensor_type;location;lat;lon;timestamp;pressure;altitude;pressure_sealevel;temperature;humidity
61474;BME280;53694;49.784;30.150;2022-08-07T00:00:10;99595.48;;;22.56;73.25
61474;BME280;53694;49.784;30.150;2022-08-07T00:01:12;99594.08;;;22.77;73.21
61474;BME280;53694;49.784;30.150;2022-08-07T00:02:14;99593.22;;;23.06;72.25
61474;BME280;53694;49.784;30.150;2022-08-07T00:03:15;99596.69;;;23.35;71.02
61474;BME280;53694;49.784;30.150;2022-08-07T00:04:17;99594.98;;;23.63;69.70
61474;BME280;53694;49.784;30.150;2022-08-07T00:05:18;99600.09;;;23.90;68.49
61474;BME280;53694;49.784;30.150;2022-08-07T00:06:21;99598.45;;;24.15;67.48
61474;BME280;53694;49.784;30.150;2022-08-07T00:07:23;99600.73;;;24.29;66.83
61474;BME280;53694;49.784;30.150;2022-08-07T00:08:25;99595.27;;;24.26;66.67
61474;BME280;53694;49.784;30.150;2022-08-07T00:09:27;99600.13;;;24.12;66.74
61474;BME280;53694;49.784;30.150;2022-08-07T00:10:29;99600.22;;;23.87;67.38
61474;BME280;53694;49.784;30.150;2022-08-07T00:11:31;99606.77;;;23.58;68.29
61474;BME280;53694;49.784;30.150;2022-08-07T00:12:33;99600.95;;;23.27;69.17
61474;BME280;53694;49.784;30.150;2022-08-07T00:13:34;99599.38;;;23.01;70.32
61474;BME280;53694;49.784;30.150;2022-08-07T00:14:36;99600.88;;;22.76;71.40
61474;BME280;53694;49.784;30.150;2022-08-07T00:15:37;99597.92;;;22.54;72.38
61474;BME280;53694;49.784;30.150;2022-08-07T00:16:39;99600.69;;;22.41;73.36
61474;BME280;53694;49.784;30.150;2022-08-07T00:17:41;99604.08;;;22.49;73.62
61474;BME280;53694;49.784;30.150;2022-08-07T00:18:42;99591.94;;;22.68;72.76
61474;BME280;53694;49.784;30.150;2022-08-07T00:19:44;99594.67;;;22.98;71.89
61474;BME280;53694;49.784;30.150;2022-08-07T00:20:46;99598.50;;;23.29;71.28
61474;BME280;53694;49.784;30.150;2022-08-07T00:21:48;99590.62;;;23.62;70.08
61474;BME280;53694;49.784;30.150;2022-08-07T00:22:50;99598.30;;;23.97;68.84
61474;BME280;53694;49.784;30.150;2022-08-07T00:23:51;99592.00;;;24.27;67.51
61474;BME280;53694;49.784;30.150;2022-08-07T00:24:53;99597.18;;;24.51;66.34
61474;BME280;53694;49.784;30.150;2022-08-07T00:25:55;99597.91;;;24.64;65.44
61474;BME280;53694;49.784;30.150;2022-08-07T00:26:57;99601.94;;;24.63;65.33
61474;BME280;53694;49.784;30.150;2022-08-07T00:27:58;99599.67;;;24.49;65.44
61474;BME280;53694;49.784;30.150;2022-08-07T00:29:00;99596.37;;;24.28;66.23
61474;BME280;53694;49.784;30.150;2022-08-07T00:30:03;99604.42;;;24.04;66.99
61474;BME280;53694;49.784;30.150;2022-08-07T00:31:08;99611.69;;;23.80;67.56
61474;BME280;53694;49.784;30.150;2022-08-07T00:32:10;99600.03;;;23.56;68.33
61474;BME280;53694;49.784;30.150;2022-08-07T00:33:11;99608.36;;;23.34;69.23
61474;BME280;53694;49.784;30.150;2022-08-07T00:34:13;99608.57;;;23.14;70.27
61474;BME280;53694;49.784;30.150;2022-08-07T00:35:17;99607.89;;;22.97;70.89
61474;BME280;53694;49.784;30.150;2022-08-07T00:36:19;99603.16;;;22.81;71.55
61474;BME280;53694;49.784;30.150;2022-08-07T00:37:21;99606.16;;;22.74;72.26
61474;BME280;53694;49.784;30.150;2022-08-07T00:38:23;99606.63;;;22.85;72.56
61474;BME280;53694;49.784;30.150;2022-08-07T00:39:25;99595.59;;;23.07;72.10
61474;BME280;53694;49.784;30.150;2022-08-07T00:40:27;99598.60;;;23.38;71.20
61474;BME280;53694;49.784;30.150;2022-08-07T00:41:32;99605.86;;;23.74;69.83
61474;BME280;53694;49.784;30.150;2022-08-07T00:42:34;99603.41;;;24.11;68.51
61474;BME280;53694;49.784;30.150;2022-08-07T00:43:36;99604.16;;;24.46;67.10
61474;BME280;53694;49.784;30.150;2022-08-07T00:44:38;99606.52;;;24.69;66.10
61474;BME280;53694;49.784;30.150;2022-08-07T00:45:40;99602.33;;;24.74;65.36
61474;BME280;53694;49.784;30.150;2022-08-07T00:46:42;99597.58;;;24.62;65.46
61474;BME280;53694;49.784;30.150;2022-08-07T00:47:43;99603.08;;;24.43;65.91
61474;BME280;53694;49.784;30.150;2022-08-07T00:48:45;99601.45;;;24.20;66.61
61474;BME280;53694;49.784;30.150;2022-08-07T00:49:46;99603.13;;;23.96;67.44
61474;BME280;53694;49.784;30.150;2022-08-07T00:50:48;99603.63;;;23.69;68.16
61474;BME280;53694;49.784;30.150;2022-08-07T00:51:50;99608.92;;;23.16;69.71
61474;BME280;53694;49.784;30.150;2022-08-07T00:52:52;99608.92;;;23.16;69.71
61474;BME280;53694;49.784;30.150;2022-08-07T00:53:53;99605.32;;;22.90;70.56
61474;BME280;53694;49.784;30.150;2022-08-07T00:54:55;99610.84;;;22.64;71.54
61474;BME280;53694;49.784;30.150;2022-08-07T00:55:57;99601.92;;;22.40;72.44
61474;BME280;53694;49.784;30.150;2022-08-07T00:56:59;99608.25;;;22.28;73.12
61474;BME280;53694;49.784;30.150;2022-08-07T00:58:01;99608.94;;;22.32;73.40
61474;BME280;53694;49.784;30.150;2022-08-07T00:59:03;99616.41;;;22.52;73.16
61474;BME280;53694;49.784;30.150;2022-08-07T01:00:06;99606.83;;;22.78;72.51
61474;BME280;53694;49.784;30.150;2022-08-07T01:01:08;99610.27;;;23.11;71.59
61474;BME280;53694;49.784;30.150;2022-08-07T01:02:10;99608.81;;;23.45;70.18
61474;BME280;53694;49.784;30.150;2022-08-07T01:03:12;99613.25;;;23.81;68.82
61474;BME280;53694;49.784;30.150;2022-08-07T01:04:14;99613.72;;;24.14;67.44
61474;BME280;53694;49.784;30.150;2022-08-07T01:05:16;99619.26;;;24.39;65.87
61474;BME280;53694;49.784;30.150;2022-08-07T01:06:18;99609.22;;;24.51;65.24
61474;BME280;53694;49.784;30.150;2022-08-07T01:07:20;99611.21;;;24.51;65.26
61474;BME280;53694;49.784;30.150;2022-08-07T01:08:22;99612.62;;;24.33;65.13
61474;BME280;53694;49.784;30.150;2022-08-07T01:09:24;99620.35;;;24.07;65.54
61474;BME280;53694;49.784;30.150;2022-08-07T01:10:26;99614.84;;;23.43;66.91
61474;BME280;53694;49.784;30.150;2022-08-07T01:11:29;99614.84;;;23.43;66.91
61474;BME280;53694;49.784;30.150;2022-08-07T01:12:30;99618.53;;;23.15;68.51
61474;BME280;53694;49.784;30.150;2022-08-07T01:13:33;99618.94;;;22.88;69.85
61474;BME280;53694;49.784;30.150;2022-08-07T01:14:35;99625.63;;;22.65;70.91
61474;BME280;53694;49.784;30.150;2022-08-07T01:15:36;99616.59;;;22.44;71.88
61474;BME280;53694;49.784;30.150;2022-08-07T01:16:38;99614.72;;;22.25;72.55
61474;BME280;53694;49.784;30.150;2022-08-07T01:17:40;99616.14;;;22.17;73.40
61474;BME280;53694;49.784;30.150;2022-08-07T01:18:42;99613.52;;;22.26;73.65
61474;BME280;53694;49.784;30.150;2022-08-07T01:19:43;99622.09;;;22.48;73.38
61474;BME280;53694;49.784;30.150;2022-08-07T01:21:51;99622.81;;;23.07;70.41
61474;BME280;53694;49.784;30.150;2022-08-07T01:22:53;99625.95;;;23.34;69.14
61474;BME280;53694;49.784;30.150;2022-08-07T01:23:56;99624.38;;;23.59;68.01
61474;BME280;53694;49.784;30.150;2022-08-07T01:24:58;99625.72;;;23.80;67.26
61474;BME280;53694;49.784;30.150;2022-08-07T01:26:02;99624.09;;;23.91;66.98
61474;BME280;53694;49.784;30.150;2022-08-07T01:27:04;99616.92;;;23.90;66.97
61474;BME280;53694;49.784;30.150;2022-08-07T01:28:06;99616.84;;;23.81;67.18
61474;BME280;53694;49.784;30.150;2022-08-07T01:29:07;99613.83;;;23.63;67.69
61474;BME280;53694;49.784;30.150;2022-08-07T01:30:10;99615.20;;;23.45;68.12
61474;BME280;53694;49.784;30.150;2022-08-07T01:31:13;99611.05;;;23.25;68.63
61474;BME280;53694;49.784;30.150;2022-08-07T01:32:15;99611.27;;;23.05;69.27
61474;BME280;53694;49.784;30.150;2022-08-07T01:33:17;99609.08;;;22.83;70.05
61474;BME280;53694;49.784;30.150;2022-08-07T01:34:19;99604.11;;;22.62;70.86
61474;BME280;53694;49.784;30.150;2022-08-07T01:35:20;99600.78;;;22.38;71.74
61474;BME280;53694;49.784;30.150;2022-08-07T01:36:23;99603.53;;;22.25;72.46
61474;BME280;53694;49.784;30.150;2022-08-07T01:37:25;99605.91;;;22.27;72.70
61474;BME280;53694;49.784;30.150;2022-08-07T01:38:28;99602.25;;;22.42;72.50
61474;BME280;53694;49.784;30.150;2022-08-07T01:39:30;99610.72;;;22.68;72.08
61474;BME280;53694;49.784;30.150;2022-08-07T01:40:32;99615.50;;;22.97;70.71
61474;BME280;53694;49.784;30.150;2022-08-07T01:41:35;99609.35;;;23.27;69.56
61474;BME280;53694;49.784;30.150;2022-08-07T01:42:37;99610.47;;;23.55;68.50
61474;BME280;53694;49.784;30.150;2022-08-07T01:43:39;99615.59;;;23.82;67.39
61474;BME280;53694;49.784;30.150;2022-08-07T01:44:41;99616.69;;;23.98;66.31
61474;BME280;53694;49.784;30.150;2022-08-07T01:45:42;99615.13;;;23.97;66.20
61474;BME280;53694;49.784;30.150;2022-08-07T01:46:44;99615.28;;;23.80;66.33
61474;BME280;53694;49.784;30.150;2022-08-07T01:47:46;99610.01;;;23.57;67.12
61474;BME280;53694;49.784;30.150;2022-08-07T01:48:48;99610.03;;;23.31;67.91
61474;BME280;53694;49.784;30.150;2022-08-07T01:49:49;99611.27;;;23.05;68.83
61474;BME280;53694;49.784;30.150;2022-08-07T01:51:06;99615.56;;;22.80;69.72
61474;BME280;53694;49.784;30.150;2022-08-07T01:52:08;99614.30;;;22.56;70.54
61474;BME280;53694;49.784;30.150;2022-08-07T01:53:10;99621.09;;;22.26;71.71
61474;BME280;53694;49.784;30.150;2022-08-07T01:54:13;99611.59;;;22.07;72.71
61474;BME280;53694;49.784;30.150;2022-08-07T01:55:16;99618.69;;;21.95;73.48
61474;BME280;53694;49.784;30.150;2022-08-07T01:56:29;99625.76;;;22.00;73.85
61474;BME280;53694;49.784;30.150;2022-08-07T01:57:27;99615.72;;;22.18;73.43
61474;BME280;53694;49.784;30.150;2022-08-07T01:58:33;99614.81;;;22.51;72.53
61474;BME280;53694;49.784;30.150;2022-08-07T01:59:41;99614.67;;;22.83;71.72
61474;BME280;53694;49.784;30.150;2022-08-07T02:00:44;99618.89;;;23.17;70.48
61474;BME280;53694;49.784;30.150;2022-08-07T02:01:57;99620.55;;;23.53;69.17
61474;BME280;53694;49.784;30.150;2022-08-07T02:03:02;99617.85;;;23.87;67.83
61474;BME280;53694;49.784;30.150;2022-08-07T02:04:10;99628.06;;;24.16;66.34
61474;BME280;53694;49.784;30.150;2022-08-07T02:05:15;99622.88;;;24.27;65.77
61474;BME280;53694;49.784;30.150;2022-08-07T02:06:20;99624.67;;;24.21;65.55
61474;BME280;53694;49.784;30.150;2022-08-07T02:07:25;99626.08;;;24.04;66.11
61474;BME280;53694;49.784;30.150;2022-08-07T02:08:29;99625.25;;;23.81;66.70
61474;BME280;53694;49.784;30.150;2022-08-07T02:09:33;99621.22;;;23.57;67.41
61474;BME280;53694;49.784;30.150;2022-08-07T02:10:35;99626.05;;;23.31;68.15
61474;BME280;53694;49.784;30.150;2022-08-07T02:11:41;99623.70;;;23.04;68.93
61474;BME280;53694;49.784;30.150;2022-08-07T02:12:44;99627.22;;;22.79;69.96
61474;BME280;53694;49.784;30.150;2022-08-07T02:13:46;99634.41;;;22.51;71.14
61474;BME280;53694;49.784;30.150;2022-08-07T02:14:51;99621.22;;;22.22;71.81
61474;BME280;53694;49.784;30.150;2022-08-07T02:15:55;99636.94;;;22.00;72.44
61474;BME280;53694;49.784;30.150;2022-08-07T02:16:59;99626.92;;;21.86;73.17
61474;BME280;53694;49.784;30.150;2022-08-07T02:18:01;99632.42;;;21.89;73.38
61474;BME280;53694;49.784;30.150;2022-08-07T02:19:06;99627.69;;;22.03;73.10
61474;BME280;53694;49.784;30.150;2022-08-07T02:20:09;99622.78;;;22.23;73.04
61474;BME280;53694;49.784;30.150;2022-08-07T02:21:11;99620.67;;;22.56;72.49
61474;BME280;53694;49.784;30.150;2022-08-07T02:22:15;99626.48;;;22.91;71.23
61474;BME280;53694;49.784;30.150;2022-08-07T02:23:17;99626.30;;;23.24;69.89
61474;BME280;53694;49.784;30.150;2022-08-07T02:24:19;99626.82;;;23.57;68.51
61474;BME280;53694;49.784;30.150;2022-08-07T02:25:22;99633.09;;;23.86;67.36
61474;BME280;53694;49.784;30.150;2022-08-07T02:26:26;99624.41;;;24.06;66.42
61474;BME280;53694;49.784;30.150;2022-08-07T02:27:28;99626.74;;;24.08;65.86
61474;BME280;53694;49.784;30.150;2022-08-07T02:28:32;99625.11;;;23.98;66.05
61474;BME280;53694;49.784;30.150;2022-08-07T02:29:34;99619.76;;;23.78;66.37
61474;BME280;53694;49.784;30.150;2022-08-07T02:30:38;99623.03;;;23.51;67.11
61474;BME280;53694;49.784;30.150;2022-08-07T02:31:41;99621.48;;;23.24;68.05
61474;BME280;53694;49.784;30.150;2022-08-07T02:32:43;99622.34;;;22.95;68.90
61474;BME280;53694;49.784;30.150;2022-08-07T02:33:45;99621.91;;;22.68;69.76
61474;BME280;53694;49.784;30.150;2022-08-07T02:34:48;99624.30;;;22.40;70.72
61474;BME280;53694;49.784;30.150;2022-08-07T02:35:52;99630.13;;;22.17;71.62
61474;BME280;53694;49.784;30.150;2022-08-07T02:36:55;99629.09;;;21.94;72.49
61474;BME280;53694;49.784;30.150;2022-08-07T02:38:01;99629.47;;;21.80;73.31
61474;BME280;53694;49.784;30.150;2022-08-07T02:39:04;99629.38;;;21.84;73.87
61474;BME280;53694;49.784;30.150;2022-08-07T02:40:08;99634.52;;;22.02;73.73
61474;BME280;53694;49.784;30.150;2022-08-07T02:41:11;99628.62;;;22.29;72.64
61474;BME280;53694;49.784;30.150;2022-08-07T02:42:13;99636.23;;;22.57;71.64
61474;BME280;53694;49.784;30.150;2022-08-07T02:43:15;99631.38;;;22.87;70.08
61474;BME280;53694;49.784;30.150;2022-08-07T02:44:19;99637.82;;;23.13;69.15
61474;BME280;53694;49.784;30.150;2022-08-07T02:45:27;99631.91;;;23.36;67.68
61474;BME280;53694;49.784;30.150;2022-08-07T02:46:27;99633.34;;;23.54;66.96
61474;BME280;53694;49.784;30.150;2022-08-07T02:47:30;99636.69;;;23.61;66.62
61474;BME280;53694;49.784;30.150;2022-08-07T02:48:32;99629.30;;;23.55;66.68
61474;BME280;53694;49.784;30.150;2022-08-07T02:49:34;99635.34;;;23.40;67.14
61474;BME280;53694;49.784;30.150;2022-08-07T02:50:38;99629.41;;;23.00;67.77
61474;BME280;53694;49.784;30.150;2022-08-07T02:51:42;99629.41;;;23.00;67.77
61474;BME280;53694;49.784;30.150;2022-08-07T02:52:58;99630.11;;;22.75;68.83
61474;BME280;53694;49.784;30.150;2022-08-07T02:54:00;99630.92;;;22.46;69.91
61474;BME280;53694;49.784;30.150;2022-08-07T02:55:24;99631.72;;;22.18;70.95
61474;BME280;53694;49.784;30.150;2022-08-07T02:56:28;99634.34;;;21.92;71.86
61474;BME280;53694;49.784;30.150;2022-08-07T02:57:32;99636.28;;;21.63;72.73
61474;BME280;53694;49.784;30.150;2022-08-07T02:58:36;99638.20;;;21.50;73.39
61474;BME280;53694;49.784;30.150;2022-08-07T02:59:40;99641.34;;;21.52;73.79
61474;BME280;53694;49.784;30.150;2022-08-07T03:00:43;99642.21;;;21.65;73.67
61474;BME280;53694;49.784;30.150;2022-08-07T03:01:45;99643.61;;;21.89;73.16
61474;BME280;53694;49.784;30.150;2022-08-07T03:02:48;99642.13;;;22.17;72.18
61474;BME280;53694;49.784;30.150;2022-08-07T03:03:51;99641.33;;;22.46;71.28
61474;BME280;53694;49.784;30.150;2022-08-07T03:04:53;99639.19;;;22.79;70.45
61474;BME280;53694;49.784;30.150;2022-08-07T03:05:56;99640.30;;;23.11;69.24
61474;BME280;53694;49.784;30.150;2022-08-07T03:06:59;99641.77;;;23.41;67.99
61474;BME280;53694;49.784;30.150;2022-08-07T03:08:03;99640.97;;;23.66;67.00
61474;BME280;53694;49.784;30.150;2022-08-07T03:09:06;99646.44;;;23.82;65.96
61474;BME280;53694;49.784;30.150;2022-08-07T03:10:09;99648.58;;;23.78;65.65
61474;BME280;53694;49.784;30.150;2022-08-07T03:11:12;99645.91;;;23.62;66.08
61474;BME280;53694;49.784;30.150;2022-08-07T03:12:15;99649.82;;;23.39;66.41
61474;BME280;53694;49.784;30.150;2022-08-07T03:13:17;99644.66;;;23.12;67.28
61474;BME280;53694;49.784;30.150;2022-08-07T03:14:19;99638.21;;;22.86;68.07
61474;BME280;53694;49.784;30.150;2022-08-07T03:15:22;99644.86;;;22.63;68.88
61474;BME280;53694;49.784;30.150;2022-08-07T03:16:24;99643.30;;;22.33;69.52
61474;BME280;53694;49.784;30.150;2022-08-07T03:17:27;99646.39;;;22.06;70.39
61474;BME280;53694;49.784;30.150;2022-08-07T03:18:29;99645.01;;;21.81;71.31
61474;BME280;53694;49.784;30.150;2022-08-07T03:19:32;99646.06;;;21.55;72.07
61474;BME280;53694;49.784;30.150;2022-08-07T03:20:35;99647.27;;;21.37;72.92
61474;BME280;53694;49.784;30.150;2022-08-07T03:21:36;99646.98;;;21.32;73.36
61474;BME280;53694;49.784;30.150;2022-08-07T03:22:40;99642.38;;;21.41;73.41
61474;BME280;53694;49.784;30.150;2022-08-07T03:23:43;99650.34;;;21.59;73.18
61474;BME280;53694;49.784;30.150;2022-08-07T03:24:46;99647.80;;;21.81;72.54
61474;BME280;53694;49.784;30.150;2022-08-07T03:25:47;99641.58;;;22.06;72.00
61474;BME280;53694;49.784;30.150;2022-08-07T03:26:50;99641.28;;;22.33;71.05
61474;BME280;53694;49.784;30.150;2022-08-07T03:27:53;99645.64;;;22.63;70.71
61474;BME280;53694;49.784;30.150;2022-08-07T03:28:57;99637.59;;;22.94;69.50
61474;BME280;53694;49.784;30.150;2022-08-07T03:30:00;99639.95;;;23.22;68.30
61474;BME280;53694;49.784;30.150;2022-08-07T03:31:03;99639.28;;;23.43;67.31
61474;BME280;53694;49.784;30.150;2022-08-07T03:32:07;99636.58;;;23.52;66.42
61474;BME280;53694;49.784;30.150;2022-08-07T03:33:09;99636.83;;;23.45;66.30
61474;BME280;53694;49.784;30.150;2022-08-07T03:34:13;99635.14;;;23.22;66.70
61474;BME280;53694;49.784;30.150;2022-08-07T03:35:20;99645.53;;;22.96;67.58
61474;BME280;53694;49.784;30.150;2022-08-07T03:36:24;99640.39;;;22.65;68.49
61474;BME280;53694;49.784;30.150;2022-08-07T03:37:27;99640.86;;;22.35;69.67
61474;BME280;53694;49.784;30.150;2022-08-07T03:38:30;99649.52;;;22.08;70.69
61474;BME280;53694;49.784;30.150;2022-08-07T03:39:33;99652.16;;;21.82;71.80
61474;BME280;53694;49.784;30.150;2022-08-07T03:40:36;99653.13;;;21.59;72.77
61474;BME280;53694;49.784;30.150;2022-08-07T03:41:38;99646.66;;;21.46;74.08
61474;BME280;53694;49.784;30.150;2022-08-07T03:42:41;99645.70;;;21.53;74.46
61474;BME280;53694;49.784;30.150;2022-08-07T03:43:43;99642.05;;;21.72;74.05
61474;BME280;53694;49.784;30.150;2022-08-07T03:44:45;99650.50;;;22.01;73.34
61474;BME280;53694;49.784;30.150;2022-08-07T03:45:48;99643.75;;;22.31;72.02
61474;BME280;53694;49.784;30.150;2022-08-07T03:46:50;99648.44;;;22.63;70.75
61474;BME280;53694;49.784;30.150;2022-08-07T03:47:51;99650.80;;;22.94;69.61
61474;BME280;53694;49.784;30.150;2022-08-07T03:48:53;99653.50;;;23.23;68.55
61474;BME280;53694;49.784;30.150;2022-08-07T03:49:58;99655.53;;;23.48;67.50
61474;BME280;53694;49.784;30.150;2022-08-07T03:51:04;99656.66;;;23.63;66.95
61474;BME280;53694;49.784;30.150;2022-08-07T03:52:06;99653.07;;;23.63;66.85
61474;BME280;53694;49.784;30.150;2022-08-07T03:53:09;99650.59;;;23.52;66.96
61474;BME280;53694;49.784;30.150;2022-08-07T03:54:11;99661.24;;;23.32;67.14
61474;BME280;53694;49.784;30.150;2022-08-07T03:55:13;99658.87;;;23.05;67.73
61474;BME280;53694;49.784;30.150;2022-08-07T03:56:18;99666.50;;;22.75;68.70
61474;BME280;53694;49.784;30.150;2022-08-07T03:57:20;99655.58;;;22.52;69.78
61474;BME280;53694;49.784;30.150;2022-08-07T03:58:22;99659.39;;;22.29;70.68
61474;BME280;53694;49.784;30.150;2022-08-07T03:59:25;99666.30;;;22.08;71.35
61474;BME280;53694;49.784;30.150;2022-08-07T04:00:28;99662.92;;;21.84;72.51
61474;BME280;53694;49.784;30.150;2022-08-07T04:01:31;99663.70;;;21.68;73.47
61474;BME280;53694;49.784;30.150;2022-08-07T04:02:35;99660.05;;;21.71;73.97
61474;BME280;53694;49.784;30.150;2022-08-07T04:03:37;99664.83;;;21.87;73.86
61474;BME280;53694;49.784;30.150;2022-08-07T04:04:41;99662.99;;;22.13;73.49
61474;BME280;53694;49.784;30.150;2022-08-07T04:05:43;99653.84;;;22.41;72.36
61474;BME280;53694;49.784;30.150;2022-08-07T04:06:45;99664.94;;;22.74;71.73
61474;BME280;53694;49.784;30.150;2022-08-07T04:07:46;99662.03;;;23.07;70.67
61474;BME280;53694;49.784;30.150;2022-08-07T04:08:48;99657.13;;;23.36;69.49
61474;BME280;53694;49.784;30.150;2022-08-07T04:09:52;99654.98;;;23.66;68.45
61474;BME280;53694;49.784;30.150;2022-08-07T04:10:54;99663.82;;;23.90;67.45
61474;BME280;53694;49.784;30.150;2022-08-07T04:11:56;99660.20;;;24.02;66.93
61474;BME280;53694;49.784;30.150;2022-08-07T04:12:58;99661.88;;;24.00;66.61
61474;BME280;53694;49.784;30.150;2022-08-07T04:14:01;99663.15;;;23.86;67.07
61474;BME280;53694;49.784;30.150;2022-08-07T04:15:03;99661.83;;;23.65;67.67
61474;BME280;53694;49.784;30.150;2022-08-07T04:16:06;99667.31;;;23.43;68.56
61474;BME280;53694;49.784;30.150;2022-08-07T04:17:08;99664.39;;;23.21;69.21
61474;BME280;53694;49.784;30.150;2022-08-07T04:18:14;99654.61;;;23.00;69.87
61474;BME280;53694;49.784;30.150;2022-08-07T04:19:16;99660.35;;;22.80;70.67
61474;BME280;53694;49.784;30.150;2022-08-07T04:20:20;99662.53;;;22.60;71.54
61474;BME280;53694;49.784;30.150;2022-08-07T04:21:22;99657.87;;;22.40;72.36
61474;BME280;53694;49.784;30.150;2022-08-07T04:22:24;99664.89;;;22.32;73.05
61474;BME280;53694;49.784;30.150;2022-08-07T04:23:27;99659.11;;;22.39;73.22
61474;BME280;53694;49.784;30.150;2022-08-07T04:24:30;99665.00;;;22.58;72.83
61474;BME280;53694;49.784;30.150;2022-08-07T04:25:32;99663.05;;;22.84;72.42
61474;BME280;53694;49.784;30.150;2022-08-07T04:26:38;99662.14;;;23.16;71.51
61474;BME280;53694;49.784;30.150;2022-08-07T04:27:37;99671.46;;;23.51;70.38
61474;BME280;53694;49.784;30.150;2022-08-07T04:28:39;99670.00;;;23.85;68.90
61474;BME280;53694;49.784;30.150;2022-08-07T04:29:43;99678.56;;;24.16;68.26
61474;BME280;53694;49.784;30.150;2022-08-07T04:30:48;99676.70;;;24.48;67.53
61474;BME280;53694;49.784;30.150;2022-08-07T04:31:51;99674.09;;;24.75;66.47
61474;BME280;53694;49.784;30.150;2022-08-07T04:32:52;99680.11;;;24.86;65.79
61474;BME280;53694;49.784;30.150;2022-08-07T04:33:54;99670.56;;;24.84;65.55
61474;BME280;53694;49.784;30.150;2022-08-07T04:34:56;99672.53;;;24.74;65.51
61474;BME280;53694;49.784;30.150;2022-08-07T04:35:58;99670.38;;;24.56;65.45
61474;BME280;53694;49.784;30.150;2022-08-07T04:37:00;99677.94;;;24.34;66.04
61474;BME280;53694;49.784;30.150;2022-08-07T04:38:06;99671.98;;;24.10;66.88
61474;BME280;53694;49.784;30.150;2022-08-07T04:39:08;99673.59;;;23.85;67.66
61474;BME280;53694;49.784;30.150;2022-08-07T04:40:11;99666.84;;;23.57;68.65
61474;BME280;53694;49.784;30.150;2022-08-07T04:41:13;99666.73;;;23.35;69.53
61474;BME280;53694;49.784;30.150;2022-08-07T04:42:14;99675.38;;;23.15;70.35
61474;BME280;53694;49.784;30.150;2022-08-07T04:43:18;99667.05;;;22.99;71.21
61474;BME280;53694;49.784;30.150;2022-08-07T04:44:21;99669.80;;;22.86;72.26
61474;BME280;53694;49.784;30.150;2022-08-07T04:45:24;99673.83;;;22.85;73.01
61474;BME280;53694;49.784;30.150;2022-08-07T04:48:03;99666.73;;;23.35;72.73
61474;BME280;53694;49.784;30.150;2022-08-07T04:54:01;99675.03;;;25.97;63.09
61474;BME280;53694;49.784;30.150;2022-08-07T04:55:39;99679.75;;;26.09;62.20
61474;BME280;53694;49.784;30.150;2022-08-07T04:57:01;99679.41;;;25.98;62.38
61474;BME280;53694;49.784;30.150;2022-08-07T04:59:10;99684.78;;;25.33;63.42
61474;BME280;53694;49.784;30.150;2022-08-07T05:00:10;99681.13;;;25.02;64.46
61474;BME280;53694;49.784;30.150;2022-08-07T05:01:23;99680.00;;;24.68;65.42
61474;BME280;53694;49.784;30.150;2022-08-07T05:02:32;99692.42;;;24.45;66.14
61474;BME280;53694;49.784;30.150;2022-08-07T05:03:54;99693.61;;;24.22;66.72
61474;BME280;53694;49.784;30.150;2022-08-07T05:05:22;99685.45;;;24.02;67.30
61474;BME280;53694;49.784;30.150;2022-08-07T05:06:45;99685.27;;;23.84;68.15
61474;BME280;53694;49.784;30.150;2022-08-07T05:08:03;99694.58;;;23.68;69.28
61474;BME280;53694;49.784;30.150;2022-08-07T05:10:40;99692.64;;;23.52;70.37
61474;BME280;53694;49.784;30.150;2022-08-07T05:11:45;99688.84;;;23.46;70.73
61474;BME280;53694;49.784;30.150;2022-08-07T05:12:51;99691.39;;;23.40;70.92
61474;BME280;53694;49.784;30.150;2022-08-07T05:14:02;99689.73;;;23.43;71.01
61474;BME280;53694;49.784;30.150;2022-08-07T05:15:09;99690.75;;;23.62;70.78
61474;BME280;53694;49.784;30.150;2022-08-07T05:16:15;99696.00;;;23.98;69.89
61474;BME280;53694;49.784;30.150;2022-08-07T05:17:19;99705.68;;;24.44;68.57
61474;BME280;53694;49.784;30.150;2022-08-07T05:18:31;99686.82;;;24.89;67.58
61474;BME280;53694;49.784;30.150;2022-08-07T05:19:46;99699.44;;;25.28;66.00
61474;BME280;53694;49.784;30.150;2022-08-07T05:20:50;99703.89;;;25.48;65.30
61474;BME280;53694;49.784;30.150;2022-08-07T05:21:55;99695.92;;;25.46;64.73
61474;BME280;53694;49.784;30.150;2022-08-07T05:23:00;99695.89;;;25.37;64.98
61474;BME280;53694;49.784;30.150;2022-08-07T05:24:11;99701.27;;;25.22;65.17
61474;BME280;53694;49.784;30.150;2022-08-07T05:25:15;99694.73;;;25.03;65.80
61474;BME280;53694;49.784;30.150;2022-08-07T05:26:20;99696.31;;;24.82;66.38
61474;BME280;53694;49.784;30.150;2022-08-07T05:27:23;99685.61;;;24.68;66.81
61474;BME280;53694;49.784;30.150;2022-08-07T05:28:25;99707.31;;;24.55;67.19
61474;BME280;53694;49.784;30.150;2022-08-07T05:29:29;99706.58;;;24.41;67.54
61474;BME280;53694;49.784;30.150;2022-08-07T05:30:31;99701.44;;;24.27;67.87
61474;BME280;53694;49.784;30.150;2022-08-07T05:31:36;99698.55;;;24.18;68.39
61474;BME280;53694;49.784;30.150;2022-08-07T05:32:38;99705.29;;;24.08;68.81
61474;BME280;53694;49.784;30.150;2022-08-07T05:33:42;99703.95;;;24.00;69.31
61474;BME280;53694;49.784;30.150;2022-08-07T05:34:44;99701.41;;;23.92;69.70
61474;BME280;53694;49.784;30.150;2022-08-07T05:35:50;99713.20;;;23.87;70.18
61474;BME280;53694;49.784;30.150;2022-08-07T05:36:54;99706.92;;;23.83;70.44
61474;BME280;53694;49.784;30.150;2022-08-07T05:37:56;99700.64;;;23.79;70.76
61474;BME280;53694;49.784;30.150;2022-08-07T05:39:00;99706.92;;;23.83;71.07
61474;BME280;53694;49.784;30.150;2022-08-07T05:40:02;99698.58;;;24.05;70.65
61474;BME280;53694;49.784;30.150;2022-08-07T05:41:04;99703.00;;;24.41;69.59
61474;BME280;53694;49.784;30.150;2022-08-07T05:42:06;99709.58;;;24.82;68.16